createdAt,value
2022-08-17T00:02:26.921Z,69.06
2022-08-17T00:04:55.433Z,69.11
2022-08-17T00:07:22.760Z,69.51
2022-08-17T00:09:49.469Z,69.67
2022-08-17T00:12:41.141Z,69.70
2022-08-17T00:15:05.091Z,69.74
2022-08-17T00:17:31.827Z,69.83
2022-08-17T00:19:59.936Z,69.93
2022-08-17T00:22:32.676Z,70.20
2022-08-17T00:25:09.755Z,70.40
2022-08-17T00:27:36.990Z,70.47
2022-08-17T00:30:07.244Z,70.50
2022-08-17T00:33:11.959Z,70.33
2022-08-17T00:35:34.863Z,70.21
2022-08-17T00:38:01.894Z,70.12
2022-08-17T00:40:39.775Z,70.49
2022-08-17T00:43:22.819Z,70.49
2022-08-17T00:45:49.912Z,70.16
2022-08-17T00:48:29.122Z,70.07
2022-08-17T00:50:59.404Z,70.16
2022-08-17T00:53:31.129Z,70.30
2022-08-17T00:56:01.700Z,70.28
2022-08-17T00:58:35.933Z,70.28
2022-08-17T01:01:04.690Z,70.07
2022-08-17T01:03:31.712Z,70.46
2022-08-17T01:06:00.938Z,70.39
2022-08-17T01:08:30.314Z,70.32
2022-08-17T01:11:01.965Z,70.68
2022-08-17T01:13:40.657Z,70.88
2022-08-17T01:16:16.035Z,70.76
2022-08-17T01:18:45.859Z,71.04
2022-08-17T01:21:40.352Z,71.04
2022-08-17T01:24:07.628Z,71.08
2022-08-17T01:26:35.687Z,71.14
2022-08-17T01:29:06.181Z,71.18
2022-08-17T01:31:42.000Z,71.23
2022-08-17T01:34:11.794Z,71.82
2022-08-17T01:36:42.692Z,71.98
2022-08-17T01:39:29.127Z,72.17
2022-08-17T01:42:05.794Z,72.28
2022-08-17T01:44:33.628Z,72.36
2022-08-17T01:47:00.269Z,72.42
2022-08-17T01:49:27.890Z,72.20
2022-08-17T01:51:55.173Z,72.78
2022-08-17T01:54:23.465Z,72.40
2022-08-17T01:56:51.835Z,72.10
2022-08-17T01:59:20.079Z,72.29
2022-08-17T02:01:48.070Z,72.56
2022-08-17T02:04:15.118Z,72.59
2022-08-17T02:06:52.642Z,72.21
2022-08-17T02:09:25.945Z,72.01
2022-08-17T02:11:56.329Z,72.39
2022-08-17T02:14:23.995Z,72.61
2022-08-17T02:16:50.708Z,72.51
2022-08-17T02:19:18.502Z,72.74
2022-08-17T02:21:48.179Z,72.90
2022-08-17T02:24:58.366Z,72.56
2022-08-17T02:27:09.456Z,72.48
2022-08-17T02:29:36.152Z,72.61
2022-08-17T02:32:04.926Z,72.61
2022-08-17T02:34:32.418Z,72.67
2022-08-17T02:36:59.080Z,72.97
2022-08-17T02:39:25.828Z,72.86
2022-08-17T02:42:00.934Z,73.00
2022-08-17T02:44:39.256Z,73.00
2022-08-17T02:47:09.160Z,73.05
2022-08-17T02:49:36.351Z,73.17
2022-08-17T02:52:06.672Z,73.18
2022-08-17T02:54:40.538Z,73.66
2022-08-17T02:57:09.394Z,73.94
2022-08-17T02:59:36.175Z,73.76
2022-08-17T03:02:04.613Z,73.45
2022-08-17T03:04:32.186Z,73.28
2022-08-17T03:07:03.353Z,73.07
2022-08-17T03:09:30.140Z,72.60
2022-08-17T03:12:08.493Z,72.17
2022-08-17T03:14:41.778Z,72.11
2022-08-17T03:17:10.068Z,71.95
2022-08-17T03:19:37.453Z,72.24
2022-08-17T03:22:36.021Z,72.24
2022-08-17T03:24:56.901Z,72.31
2022-08-17T03:27:23.590Z,72.02
2022-08-17T03:29:50.292Z,71.90
2022-08-17T03:32:17.043Z,71.64
2022-08-17T03:34:43.810Z,71.49
2022-08-17T03:37:10.529Z,71.54
2022-08-17T03:39:37.351Z,71.19
2022-08-17T03:42:09.157Z,71.21
2022-08-17T03:44:57.881Z,71.54
2022-08-17T03:47:43.628Z,71.60
2022-08-17T03:50:30.883Z,72.02
2022-08-17T03:53:36.029Z,72.15
2022-08-17T03:56:23.247Z,72.38
2022-08-17T03:58:50.717Z,72.36
2022-08-17T04:01:17.983Z,72.22
2022-08-17T04:03:44.755Z,71.66
2022-08-17T04:06:11.444Z,72.03
2022-08-17T04:08:38.104Z,71.77
2022-08-17T04:11:04.941Z,71.56
2022-08-17T04:13:31.945Z,72.04
2022-08-17T04:15:59.920Z,72.08
2022-08-17T04:18:26.706Z,72.04
2022-08-17T04:20:53.525Z,71.64
2022-08-17T04:23:20.265Z,71.52
2022-08-17T04:25:50.558Z,71.59
2022-08-17T04:28:18.981Z,71.57
2022-08-17T04:30:47.464Z,71.35
2022-08-17T04:33:18.935Z,71.33
2022-08-17T04:35:51.202Z,71.37
2022-08-17T04:38:20.913Z,71.63
2022-08-17T04:41:06.143Z,71.57
2022-08-17T04:43:35.406Z,71.52
2022-08-17T04:46:05.342Z,71.68
2022-08-17T04:48:37.261Z,72.12
2022-08-17T04:51:09.536Z,72.13
2022-08-17T04:53:36.489Z,72.67
2022-08-17T04:56:03.327Z,72.73
2022-08-17T04:58:30.018Z,72.75
2022-08-17T05:00:56.872Z,72.53
2022-08-17T05:03:24.257Z,72.58
2022-08-17T05:05:51.208Z,73.07
2022-08-17T05:08:19.914Z,73.26
2022-08-17T05:10:47.974Z,72.53
2022-08-17T05:13:17.520Z,72.41
2022-08-17T05:15:47.658Z,72.51
2022-08-17T05:18:16.669Z,71.90
2022-08-17T05:20:43.498Z,71.34
2022-08-17T05:23:14.905Z,70.67
2022-08-17T05:25:47.644Z,70.53
2022-08-17T05:28:16.804Z,69.86
2022-08-17T05:30:45.899Z,69.01
2022-08-17T05:33:26.923Z,68.26
2022-08-17T05:35:56.897Z,68.00
2022-08-17T05:38:26.168Z,67.95
2022-08-17T05:40:54.075Z,68.01
2022-08-17T05:43:31.037Z,67.66
2022-08-17T05:46:27.020Z,66.96
2022-08-17T05:48:57.655Z,66.10
2022-08-17T05:51:51.561Z,65.34
2022-08-17T05:54:33.492Z,64.82
2022-08-17T05:57:23.851Z,64.26
2022-08-17T06:00:12.161Z,63.27
2022-08-17T06:03:04.487Z,62.68
2022-08-17T06:06:08.381Z,61.93
2022-08-17T06:08:51.641Z,61.11
2022-08-17T06:11:37.314Z,60.25
2022-08-17T06:14:15.933Z,59.61
2022-08-17T06:16:46.513Z,59.11
2022-08-17T06:19:55.309Z,58.57
2022-08-17T06:22:26.096Z,57.77
2022-08-17T06:25:18.859Z,56.82
2022-08-17T06:27:53.418Z,56.20
2022-08-17T06:30:57.517Z,56.32
2022-08-17T06:33:32.311Z,56.27
2022-08-17T06:36:26.535Z,54.71
2022-08-17T06:39:04.302Z,54.51
2022-08-17T06:41:54.598Z,53.73
2022-08-17T06:44:42.335Z,54.59
2022-08-17T06:47:28.363Z,55.21
2022-08-17T06:50:09.085Z,56.64
2022-08-17T06:52:48.764Z,57.08
2022-08-17T06:55:26.313Z,56.88
2022-08-17T06:58:01.447Z,57.63
2022-08-17T07:00:40.814Z,56.97
2022-08-17T07:03:37.733Z,55.14
2022-08-17T07:06:23.949Z,54.10
2022-08-17T07:09:09.196Z,52.34
2022-08-17T07:11:44.342Z,50.81
2022-08-17T07:14:45.791Z,50.23
2022-08-17T07:17:17.278Z,49.95
2022-08-17T07:19:47.505Z,49.43
2022-08-17T07:22:50.316Z,48.26
2022-08-17T07:25:23.597Z,46.26
2022-08-17T07:27:55.884Z,44.67
2022-08-17T07:30:47.459Z,44.36
2022-08-17T07:33:17.968Z,43.86
2022-08-17T07:35:48.447Z,43.57
2022-08-17T07:38:25.028Z,42.09
2022-08-17T07:41:02.996Z,41.72
2022-08-17T07:43:39.161Z,41.70
2022-08-17T07:46:30.657Z,41.89
2022-08-17T07:49:17.409Z,41.85
2022-08-17T07:51:44.174Z,40.81
2022-08-17T07:54:22.986Z,39.85
2022-08-17T07:56:52.927Z,39.56
2022-08-17T07:59:33.685Z,38.96
2022-08-17T08:02:08.088Z,38.73
2022-08-17T08:05:08.587Z,38.92
2022-08-17T08:07:42.681Z,39.56
2022-08-17T08:10:25.214Z,39.35
2022-08-17T08:13:05.740Z,39.56
2022-08-17T08:15:39.787Z,39.52
2022-08-17T08:18:55.015Z,39.19
2022-08-17T08:21:39.157Z,38.90
2022-08-17T08:24:21.043Z,37.99
2022-08-17T08:27:01.550Z,37.17
2022-08-17T08:29:49.931Z,37.53
2022-08-17T08:32:50.177Z,36.22
2022-08-17T08:35:23.451Z,36.92
2022-08-17T08:38:34.547Z,35.79
2022-08-17T08:41:16.474Z,36.64
2022-08-17T08:43:55.041Z,36.41
2022-08-17T08:46:49.803Z,36.27
2022-08-17T08:50:01.832Z,35.43
2022-08-17T08:52:34.091Z,35.17
2022-08-17T08:55:23.694Z,35.03
2022-08-17T08:58:04.909Z,34.58
2022-08-17T09:00:38.409Z,33.60
2022-08-17T09:03:20.228Z,32.54
2022-08-17T09:06:37.313Z,32.70
2022-08-17T09:09:28.297Z,33.24
2022-08-17T09:12:05.455Z,32.61
2022-08-17T09:14:46.596Z,33.14
2022-08-17T09:18:14.638Z,33.44
2022-08-17T09:20:51.231Z,33.22
2022-08-17T09:23:22.709Z,32.25
2022-08-17T09:25:58.570Z,30.99
2022-08-17T09:28:37.915Z,30.46
2022-08-17T09:31:16.723Z,30.41
2022-08-17T09:33:46.850Z,30.19
2022-08-17T09:36:25.983Z,30.23
2022-08-17T09:39:01.895Z,30.37
2022-08-17T09:41:37.710Z,31.39
2022-08-17T09:44:36.766Z,30.49
2022-08-17T09:47:15.671Z,31.81
2022-08-17T09:49:48.370Z,31.72
2022-08-17T09:52:25.141Z,32.01
2022-08-17T09:54:54.593Z,32.76
2022-08-17T09:57:31.487Z,32.46
2022-08-17T10:00:16.572Z,32.05
2022-08-17T10:03:22.440Z,31.55
2022-08-17T10:05:59.948Z,32.15
2022-08-17T10:08:42.095Z,32.36
2022-08-17T10:11:50.258Z,32.00
2022-08-17T10:14:38.085Z,31.44
2022-08-17T10:17:21.631Z,31.07
2022-08-17T10:20:04.131Z,30.87
2022-08-17T10:23:01.872Z,30.97
2022-08-17T10:25:55.063Z,31.43
2022-08-17T10:28:29.714Z,32.43
2022-08-17T10:31:30.821Z,32.89
2022-08-17T10:34:12.392Z,33.14
2022-08-17T10:37:08.727Z,32.37
2022-08-17T10:40:07.338Z,32.63
2022-08-17T10:42:43.848Z,32.79
2022-08-17T10:45:33.583Z,33.24
2022-08-17T10:48:06.554Z,33.46
2022-08-17T10:51:00.339Z,33.58
2022-08-17T10:53:48.670Z,34.77
2022-08-17T10:56:16.310Z,36.00
2022-08-17T10:58:57.914Z,36.10
2022-08-17T11:01:41.224Z,36.68
2022-08-17T11:04:42.040Z,37.28
2022-08-17T11:07:30.539Z,38.65
2022-08-17T11:10:00.015Z,38.97
2022-08-17T11:12:37.654Z,39.07
2022-08-17T11:15:16.541Z,39.13
2022-08-17T11:18:08.817Z,38.23
2022-08-17T11:21:06.494Z,38.67
2022-08-17T11:24:14.696Z,38.24
2022-08-17T11:26:48.815Z,38.82
2022-08-17T11:29:24.704Z,38.55
2022-08-17T11:32:00.027Z,37.71
2022-08-17T11:34:30.016Z,38.05
2022-08-17T11:37:11.224Z,37.74
2022-08-17T11:40:25.866Z,37.71
2022-08-17T11:43:05.427Z,36.54
2022-08-17T11:45:37.983Z,35.40
2022-08-17T11:48:31.971Z,34.99
2022-08-17T11:51:28.190Z,34.22
2022-08-17T11:54:14.751Z,33.99
2022-08-17T11:56:49.196Z,33.78
2022-08-17T11:59:37.102Z,33.73
2022-08-17T12:02:31.778Z,32.80
2022-08-17T12:05:14.571Z,33.52
2022-08-17T12:07:46.380Z,33.41
2022-08-17T12:10:17.280Z,33.23
2022-08-17T12:12:45.814Z,34.47
2022-08-17T12:15:24.611Z,34.71
2022-08-17T12:17:53.962Z,35.23
2022-08-17T12:20:27.838Z,35.56
2022-08-17T12:23:09.302Z,36.27
2022-08-17T12:25:35.966Z,36.65
2022-08-17T12:28:06.479Z,36.74
2022-08-17T12:30:35.648Z,36.97
2022-08-17T12:33:02.618Z,36.16
2022-08-17T12:35:36.225Z,36.00
2022-08-17T12:38:06.536Z,35.62
2022-08-17T12:40:57.941Z,35.15
2022-08-17T12:43:29.264Z,34.25
2022-08-17T12:45:59.497Z,34.77
2022-08-17T12:48:28.954Z,34.85
2022-08-17T12:51:02.434Z,34.20
2022-08-17T12:53:32.604Z,33.72
2022-08-17T12:56:01.531Z,34.27
2022-08-17T12:58:32.206Z,33.56
2022-08-17T13:01:04.367Z,33.33
2022-08-17T13:03:43.401Z,32.80
2022-08-17T13:06:25.231Z,33.76
2022-08-17T13:08:52.398Z,33.82
2022-08-17T13:11:24.166Z,33.50
2022-08-17T13:13:55.145Z,33.17
2022-08-17T13:16:28.535Z,32.93
2022-08-17T13:19:16.532Z,32.13
2022-08-17T13:21:49.039Z,32.54
2022-08-17T13:24:25.163Z,32.64
2022-08-17T13:27:00.963Z,32.25
2022-08-17T13:29:51.221Z,31.64
2022-08-17T13:32:43.033Z,31.93
2022-08-17T13:35:39.251Z,32.47
2022-08-17T13:38:14.022Z,32.22
2022-08-17T13:40:53.143Z,31.66
2022-08-17T13:43:48.560Z,32.19
2022-08-17T13:46:21.808Z,32.12
2022-08-17T13:49:03.619Z,32.16
2022-08-17T13:51:34.175Z,32.95
2022-08-17T13:54:03.987Z,33.78
2022-08-17T13:56:39.667Z,34.37
2022-08-17T13:59:13.059Z,34.90
2022-08-17T14:01:53.417Z,34.94
2022-08-17T14:04:24.898Z,35.80
2022-08-17T14:07:11.524Z,36.04
2022-08-17T14:10:00.848Z,35.92
2022-08-17T14:12:30.534Z,36.35
2022-08-17T14:14:58.909Z,36.04
2022-08-17T14:17:29.006Z,36.50
2022-08-17T14:19:55.822Z,36.38
2022-08-17T14:22:30.491Z,35.70
2022-08-17T14:24:58.765Z,35.82
2022-08-17T14:27:28.165Z,35.90
2022-08-17T14:29:56.439Z,35.89
2022-08-17T14:32:29.913Z,35.23
2022-08-17T14:34:57.742Z,35.47
2022-08-17T14:37:28.017Z,35.40
2022-08-17T14:39:57.255Z,33.89
2022-08-17T14:42:25.546Z,34.64
2022-08-17T14:44:53.934Z,34.82
2022-08-17T14:47:20.864Z,34.52
2022-08-17T14:49:51.098Z,34.05
2022-08-17T14:52:24.073Z,34.40
2022-08-17T14:54:52.664Z,34.66
2022-08-17T14:57:26.036Z,34.41
2022-08-17T15:00:02.112Z,34.40
2022-08-17T15:02:30.903Z,33.82
2022-08-17T15:05:03.820Z,34.42
2022-08-17T15:07:31.553Z,34.68
2022-08-17T15:10:02.050Z,34.90
2022-08-17T15:12:33.306Z,34.98
2022-08-17T15:15:05.292Z,35.06
2022-08-17T15:17:44.353Z,35.29
2022-08-17T15:20:23.970Z,36.06
2022-08-17T15:22:50.999Z,36.08
2022-08-17T15:25:19.335Z,36.12
2022-08-17T15:27:46.434Z,36.26
2022-08-17T15:30:13.632Z,36.29
2022-08-17T15:32:45.790Z,36.22
2022-08-17T15:35:27.572Z,36.32
2022-08-17T15:37:57.754Z,36.38
2022-08-17T15:40:25.166Z,36.41
2022-08-17T15:42:52.716Z,36.69
2022-08-17T15:45:24.920Z,36.63
2022-08-17T15:47:53.530Z,36.46
2022-08-17T15:50:20.247Z,36.42
2022-08-17T15:52:47.582Z,36.85
2022-08-17T15:55:15.223Z,36.91
2022-08-17T15:57:41.978Z,36.87
2022-08-17T16:00:10.145Z,36.96
2022-08-17T16:03:45.966Z,36.46
2022-08-17T16:05:28.504Z,36.97
2022-08-17T16:07:58.651Z,36.64
2022-08-17T16:10:35.739Z,36.75
2022-08-17T16:13:03.979Z,36.98
2022-08-17T16:15:31.840Z,36.93
2022-08-17T16:17:59.059Z,37.08
2022-08-17T16:20:25.819Z,37.07
2022-08-17T16:22:52.960Z,37.35
2022-08-17T16:25:52.461Z,37.00
2022-08-17T16:28:17.455Z,37.10
2022-08-17T16:30:44.374Z,37.58
2022-08-17T16:33:12.001Z,37.19
2022-08-17T16:35:38.988Z,37.49
2022-08-17T16:38:07.289Z,37.56
2022-08-17T16:40:35.710Z,37.67
2022-08-17T16:43:07.099Z,38.30
2022-08-17T16:45:36.779Z,37.99
2022-08-17T16:48:04.411Z,38.52
2022-08-17T16:50:32.178Z,38.75
2022-08-17T16:53:06.692Z,38.31
2022-08-17T16:55:35.701Z,39.06
2022-08-17T16:58:04.755Z,38.88
2022-08-17T17:00:33.179Z,39.30
2022-08-17T17:03:19.638Z,38.98
2022-08-17T17:05:57.922Z,39.38
2022-08-17T17:08:30.434Z,39.56
2022-08-17T17:10:59.593Z,39.42
2022-08-17T17:13:35.471Z,39.96
2022-08-17T17:16:28.667Z,39.71
2022-08-17T17:18:55.262Z,39.79
2022-08-17T17:21:31.244Z,39.89
2022-08-17T17:24:06.999Z,40.40
2022-08-17T17:26:39.729Z,40.57
2022-08-17T17:29:18.427Z,40.73
2022-08-17T17:32:04.569Z,40.77
2022-08-17T17:34:37.362Z,41.69
2022-08-17T17:37:13.250Z,41.80
2022-08-17T17:39:56.125Z,42.15
2022-08-17T17:42:28.343Z,41.55
2022-08-17T17:45:04.453Z,41.29
2022-08-17T17:47:33.464Z,41.66
2022-08-17T17:50:02.174Z,42.24
2022-08-17T17:52:50.773Z,41.86
2022-08-17T17:55:31.019Z,42.23
2022-08-17T17:58:10.096Z,42.36
2022-08-17T18:00:58.856Z,42.42
2022-08-17T18:03:31.746Z,42.94
2022-08-17T18:06:31.491Z,42.85
2022-08-17T18:09:08.923Z,43.10
2022-08-17T18:11:59.190Z,43.51
2022-08-17T18:14:40.843Z,43.57
2022-08-17T18:17:07.438Z,44.55
2022-08-17T18:19:34.087Z,44.83
2022-08-17T18:22:03.769Z,45.21
2022-08-17T18:24:40.088Z,44.75
2022-08-17T18:27:34.991Z,45.55
2022-08-17T18:30:21.576Z,45.51
2022-08-17T18:32:48.290Z,45.88
2022-08-17T18:35:14.899Z,45.44
2022-08-17T18:37:42.694Z,45.99
2022-08-17T18:40:18.504Z,45.60
2022-08-17T18:43:05.503Z,45.95
2022-08-17T18:45:34.058Z,45.38
2022-08-17T18:48:01.302Z,45.56
2022-08-17T18:50:36.799Z,45.65
2022-08-17T18:53:34.548Z,45.82
2022-08-17T18:56:22.903Z,45.54
2022-08-17T18:59:00.615Z,45.61
2022-08-17T19:01:47.003Z,45.92
2022-08-17T19:04:34.557Z,46.06
2022-08-17T19:07:04.991Z,46.11
2022-08-17T19:09:39.823Z,46.17
2022-08-17T19:12:13.498Z,46.13
2022-08-17T19:14:40.572Z,46.25
2022-08-17T19:17:21.926Z,46.34
2022-08-17T19:20:03.073Z,46.55
2022-08-17T19:22:40.482Z,46.92
2022-08-17T19:25:18.697Z,47.31
2022-08-17T19:28:02.937Z,47.22
2022-08-17T19:30:30.320Z,47.84
2022-08-17T19:32:58.467Z,47.94
2022-08-17T19:35:46.795Z,48.19
2022-08-17T19:38:38.405Z,48.55
2022-08-17T19:41:18.157Z,48.52
2022-08-17T19:44:06.990Z,48.59
2022-08-17T19:46:56.329Z,48.86
2022-08-17T19:49:46.849Z,48.94
2022-08-17T19:52:37.464Z,48.67
2022-08-17T19:55:23.127Z,48.91
2022-08-17T19:58:00.802Z,48.76
2022-08-17T20:00:28.538Z,48.88
2022-08-17T20:03:22.153Z,49.16
2022-08-17T20:08:58.337Z,49.54
2022-08-17T20:11:41.753Z,49.59
2022-08-17T20:14:13.795Z,49.22
2022-08-17T20:16:40.880Z,49.44
2022-08-17T20:19:16.868Z,49.20
2022-08-17T20:21:48.654Z,49.66
2022-08-17T20:24:27.522Z,49.25
2022-08-17T20:27:12.375Z,49.57
2022-08-17T20:29:57.844Z,49.68
2022-08-17T20:32:31.336Z,49.74
2022-08-17T20:35:32.909Z,49.90
2022-08-17T20:37:59.829Z,49.63
2022-08-17T20:40:37.145Z,49.71
2022-08-17T20:43:43.479Z,49.66
2022-08-17T20:46:31.870Z,49.32
2022-08-17T20:49:23.350Z,49.62
2022-08-17T20:52:01.185Z,49.64
2022-08-17T20:54:49.056Z,49.81
2022-08-17T20:57:37.234Z,49.61
2022-08-17T21:00:18.811Z,49.69
2022-08-17T21:02:49.572Z,49.69
2022-08-17T21:05:57.248Z,49.72
2022-08-17T21:08:55.241Z,50.06
2022-08-17T21:11:56.728Z,49.94
2022-08-17T21:14:49.730Z,49.80
2022-08-17T21:17:54.885Z,49.29
2022-08-17T21:20:32.196Z,49.61
2022-08-17T21:23:24.394Z,50.05
2022-08-17T21:26:14.080Z,50.64
2022-08-17T21:29:31.339Z,50.42
2022-08-17T21:32:05.274Z,52.56
2022-08-17T21:35:07.355Z,56.01
2022-08-17T21:37:45.159Z,58.60
2022-08-17T21:40:18.199Z,61.25
2022-08-17T21:42:55.152Z,65.88
2022-08-17T21:45:37.943Z,68.44
2022-08-17T21:48:20.021Z,71.24
2022-08-17T21:51:00.982Z,73.92
2022-08-17T21:53:53.234Z,75.52
2022-08-17T21:56:24.678Z,74.82
2022-08-17T21:59:07.688Z,78.12
2022-08-17T22:01:41.660Z,79.16
2022-08-17T22:04:11.720Z,80.86
2022-08-17T22:06:52.480Z,82.19
2022-08-17T22:09:31.880Z,84.03
2022-08-17T22:12:06.637Z,84.50
2022-08-17T22:14:53.044Z,86.97
2022-08-17T22:17:29.745Z,87.98
2022-08-17T22:20:04.493Z,88.92
2022-08-17T22:22:55.919Z,90.89
2022-08-17T22:25:24.310Z,92.04
2022-08-17T22:28:00.409Z,93.13
2022-08-17T22:30:27.781Z,93.39
2022-08-17T22:32:55.458Z,92.89
2022-08-17T22:35:25.282Z,93.98
2022-08-17T22:37:52.593Z,94.45
2022-08-17T22:40:34.567Z,95.29
2022-08-17T22:43:03.598Z,95.36
2022-08-17T22:45:31.305Z,96.02
2022-08-17T22:48:02.218Z,96.67
2022-08-17T22:50:33.121Z,96.71
2022-08-17T22:53:21.654Z,96.62
2022-08-17T22:56:15.159Z,98.04
2022-08-17T22:59:12.373Z,97.46
2022-08-17T23:01:40.668Z,97.04
2022-08-17T23:04:11.643Z,97.43
2022-08-17T23:06:42.363Z,97.15
2022-08-17T23:09:09.536Z,98.75
2022-08-17T23:11:48.810Z,98.91
2022-08-17T23:14:19.890Z,99.01
2022-08-17T23:16:50.277Z,98.26
2022-08-17T23:19:21.526Z,98.72
2022-08-17T23:21:53.824Z,100.00
2022-08-17T23:24:24.246Z,100.00
2022-08-17T23:26:51.176Z,100.00
2022-08-17T23:29:20.544Z,100.00
2022-08-17T23:31:49.300Z,100.00
2022-08-17T23:34:18.411Z,99.91
2022-08-17T23:36:51.282Z,100.00
2022-08-17T23:39:27.470Z,100.00
2022-08-17T23:41:59.103Z,100.00
2022-08-17T23:44:26.603Z,100.00
2022-08-17T23:46:54.520Z,100.00
2022-08-17T23:49:21.399Z,100.00
2022-08-17T23:51:48.981Z,100.00
2022-08-17T23:54:37.481Z,100.00
2022-08-17T23:57:09.254Z,100.00
2022-08-17T23:59:37.158Z,100.00
